Time;durP1;ratioP1;P1;durP2;ratioP2;P2;SDS_P1;SDS_P2;PMS_P1;PMS_P2;Temp;Humidity;BMP_temperature;BMP_pressure;BME280_temperature;BME280_humidity;BME280_pressure;Samples;Min_cycle;Max_cycle;Signal;HPM_P1;HPM_P2
2023/10/24 00:02:05;;;;;;;8.40;7.60;;;;;;;10.03;100.00;95537.03;5069213;27;105173;-80
2023/10/24 00:04:32;;;;;;;7.10;6.37;;;;;;;9.99;100.00;95536.00;5068783;27;105134;-80
2023/10/24 00:06:59;;;;;;;7.23;6.53;;;;;;;10.01;100.00;95543.66;5069270;27;102091;-80
2023/10/24 00:09:26;;;;;;;7.73;6.73;;;;;;;10.05;100.00;95544.78;5071898;27;105044;-78
2023/10/24 00:11:53;;;;;;;6.60;6.00;;;;;;;10.07;100.00;95554.06;5069104;27;102022;-78
2023/10/24 00:14:21;;;;;;;6.83;6.23;;;;;;;10.08;100.00;95557.53;5069230;27;105408;-78
2023/10/24 00:16:48;;;;;;;7.50;6.43;;;;;;;10.05;100.00;95550.88;5068429;27;104162;-78
2023/10/24 00:19:15;;;;;;;8.27;6.70;;;;;;;10.01;100.00;95541.81;5068970;27;101900;-78
2023/10/24 00:21:42;;;;;;;8.90;8.10;;;;;;;10.04;100.00;95529.91;5086284;27;105636;-78
2023/10/24 00:24:09;;;;;;;8.07;6.43;;;;;;;10.01;100.00;95527.72;5051484;27;105429;-79
2023/10/24 00:26:36;;;;;;;7.53;6.83;;;;;;;9.98;100.00;95515.78;5068927;27;101974;-79
2023/10/24 00:29:04;;;;;;;8.43;6.20;;;;;;;9.90;100.00;95518.19;5069004;27;105348;-79
2023/10/24 00:31:32;;;;;;;6.70;5.77;;;;;;;9.93;100.00;95522.97;5071870;27;105341;-80
2023/10/24 00:33:59;;;;;;;6.00;5.50;;;;;;;9.91;100.00;95522.44;5069094;27;104140;-80
2023/10/24 00:36:26;;;;;;;6.40;5.80;;;;;;;9.83;100.00;95521.13;5068369;27;105061;-80
2023/10/24 00:38:53;;;;;;;6.93;5.70;;;;;;;9.87;100.00;95537.31;5068753;27;102017;-80
2023/10/24 00:41:21;;;;;;;5.97;5.37;;;;;;;9.92;100.00;95547.94;5068692;27;104806;-80
2023/10/24 00:43:48;;;;;;;6.63;5.93;;;;;;;9.70;100.00;95544.75;5069589;27;103239;-80
2023/10/24 00:46:15;;;;;;;6.40;5.80;;;;;;;9.60;100.00;95548.19;5070691;27;101938;-80
2023/10/24 00:48:44;;;;;;;6.60;5.90;;;;;;;9.56;100.00;95551.63;5072612;27;104295;-80
2023/10/24 00:51:11;;;;;;;8.27;5.90;;;;;;;9.49;100.00;95557.19;5071621;27;104273;-80
2023/10/24 00:53:38;;;;;;;6.47;5.70;;;;;;;9.40;100.00;95558.78;5075586;27;101939;-80
2023/10/24 00:56:06;;;;;;;7.43;6.70;;;;;;;9.41;100.00;95543.66;5071503;27;103790;-80
2023/10/24 00:58:35;;;;;;;7.13;6.50;;;;;;;9.41;100.00;95541.00;5072199;27;102103;-80
2023/10/24 01:01:02;;;;;;;8.03;7.03;;;;;;;9.34;100.00;95546.56;5072007;27;105313;-80
2023/10/24 01:03:29;;;;;;;8.13;7.33;;;;;;;9.26;100.00;95560.34;5071490;27;105575;-80
2023/10/24 01:05:58;;;;;;;8.73;8.03;;;;;;;9.25;100.00;95555.28;5071960;27;101965;-80
2023/10/24 01:08:25;;;;;;;9.27;8.10;;;;;;;9.24;100.00;95559.81;5071842;27;105721;-80
2023/10/24 01:10:52;;;;;;;11.00;9.00;;;;;;;9.29;100.00;95551.88;5072838;27;102663;-80
2023/10/24 01:13:19;;;;;;;12.37;10.20;;;;;;;9.34;100.00;95564.34;5073360;27;102125;-80
2023/10/24 01:15:46;;;;;;;11.70;10.10;;;;;;;9.37;100.00;95580.53;5073858;27;105247;-80
2023/10/24 01:18:13;;;;;;;11.33;10.33;;;;;;;9.41;100.00;95581.59;5070770;27;101975;-80
2023/10/24 01:20:40;;;;;;;11.27;10.10;;;;;;;9.44;100.00;95580.28;5070678;27;105214;-80
2023/10/24 01:23:09;;;;;;;12.43;11.13;;;;;;;9.51;100.00;95581.63;5070019;27;104283;-81
2023/10/24 01:25:39;;;;;;;12.43;11.13;;;;;;;9.51;100.00;95578.97;5070792;27;102044;-82
2023/10/24 01:28:06;;;;;;;13.77;11.37;;;;;;;9.50;100.00;95579.22;5070477;27;105145;-82
2023/10/24 01:30:33;;;;;;;13.00;11.10;;;;;;;9.49;100.00;95573.09;5070149;27;105197;-81
2023/10/24 01:33:00;;;;;;;13.20;11.70;;;;;;;9.59;100.00;95582.97;5070490;27;102024;-81
2023/10/24 01:35:29;;;;;;;13.87;11.47;;;;;;;9.62;100.00;95579.78;5070688;27;104983;-81
2023/10/24 01:37:55;;;;;;;12.90;10.93;;;;;;;9.59;100.00;95567.03;5073327;27;105583;-81
2023/10/24 01:40:25;;;;;;;11.50;9.97;;;;;;;9.64;100.00;95564.38;5070510;27;105269;-81
2023/10/24 01:42:52;;;;;;;10.93;9.73;;;;;;;9.62;100.00;95572.63;5087003;27;105129;-81
2023/10/24 01:45:20;;;;;;;12.20;10.70;;;;;;;9.62;100.00;95579.78;5070993;27;102216;-81
2023/10/24 01:47:46;;;;;;;10.63;9.53;;;;;;;9.64;100.00;95588.25;5070234;27;105181;-80
2023/10/24 01:50:13;;;;;;;10.87;9.73;;;;;;;9.50;100.00;95597.81;5072111;27;103411;-81
2023/10/24 01:52:40;;;;;;;10.80;9.70;;;;;;;9.50;100.00;95600.47;5071377;27;101836;-81
2023/10/24 01:55:08;;;;;;;10.27;9.17;;;;;;;9.43;100.00;95599.91;5071180;27;105324;-81
2023/10/24 01:57:36;;;;;;;10.27;9.20;;;;;;;9.46;100.00;95600.19;5073518;27;105550;-81
2023/10/24 02:00:04;;;;;;;9.27;8.30;;;;;;;9.29;100.00;95593.50;5071039;27;104832;-81
2023/10/24 02:02:39;;;;;;;11.57;8.87;;;;;;;9.28;100.00;95590.03;5068880;27;102238;-81
2023/10/24 02:05:06;;;;;;;9.20;8.30;;;;;;;9.25;100.00;95587.13;5072365;27;101843;-81
2023/10/24 02:07:33;;;;;;;10.70;9.43;;;;;;;9.25;100.00;95581.81;5070911;27;104797;-81
2023/10/24 02:10:00;;;;;;;10.07;9.07;;;;;;;9.15;100.00;95597.69;5070493;27;105658;-81
2023/10/24 02:12:27;;;;;;;11.63;9.07;;;;;;;9.18;100.00;95619.22;5070988;27;101945;-81
2023/10/24 02:14:55;;;;;;;10.20;9.27;;;;;;;9.16;100.00;95609.91;5072445;27;102830;-81
2023/10/24 02:17:22;;;;;;;9.70;8.33;;;;;;;9.21;100.00;95612.59;5070265;27;105909;-81
2023/10/24 02:19:52;;;;;;;9.90;8.53;;;;;;;9.23;100.00;95594.53;5074428;27;101959;-81
2023/10/24 02:22:19;;;;;;;10.07;9.10;;;;;;;9.20;100.00;95585.25;5070034;27;105137;-81
2023/10/24 02:24:46;;;;;;;8.83;8.00;;;;;;;9.13;100.00;95586.56;5070499;27;102281;-81
2023/10/24 02:27:13;;;;;;;9.20;8.23;;;;;;;9.16;100.00;95583.38;5070900;27;105070;-81
2023/10/24 02:29:39;;;;;;;8.60;7.80;;;;;;;9.03;100.00;95589.16;5070128;27;105708;-81
2023/10/24 02:32:08;;;;;;;8.93;7.80;;;;;;;8.98;100.00;95589.94;5070601;27;101966;-81
2023/10/24 02:34:35;;;;;;;10.40;8.97;;;;;;;8.77;100.00;95595.44;5070579;27;105278;-82
2023/10/24 02:37:02;;;;;;;9.97;8.90;;;;;;;8.77;100.00;95593.56;5069975;27;105432;-82
2023/10/24 02:39:29;;;;;;;10.53;9.53;;;;;;;8.83;100.00;95599.69;5070568;27;101951;-81
2023/10/24 02:41:56;;;;;;;9.13;8.23;;;;;;;8.80;100.00;95602.84;5073340;27;104762;-81
2023/10/24 02:44:23;;;;;;;9.33;8.20;;;;;;;8.81;100.00;95589.34;5070448;27;101932;-80
2023/10/24 02:46:50;;;;;;;10.17;9.00;;;;;;;8.72;100.00;95590.09;5070155;27;105733;-80
2023/10/24 02:49:19;;;;;;;9.60;8.60;;;;;;;8.82;100.00;95596.25;5069595;27;105427;-80
2023/10/24 02:51:46;;;;;;;9.73;8.60;;;;;;;8.71;100.00;95591.13;5070483;27;102213;-80
2023/10/24 02:54:12;;;;;;;10.00;9.10;;;;;;;8.78;100.00;95591.72;5070272;27;105883;-80
2023/10/24 02:56:39;;;;;;;13.83;9.90;;;;;;;8.80;100.00;95584.31;5069637;27;105490;-80
2023/10/24 02:59:07;;;;;;;10.17;9.17;;;;;;;8.83;100.00;95573.19;5070297;27;101744;-79
2023/10/24 03:01:34;;;;;;;11.13;9.60;;;;;;;8.88;100.00;95576.66;5070181;27;105368;-79
2023/10/24 03:04:00;;;;;;;11.03;8.17;;;;;;;8.87;100.00;95580.38;5073023;27;106374;-80
2023/10/24 03:06:29;;;;;;;11.10;8.70;;;;;;;8.87;100.00;95574.25;5069756;27;106517;-80
2023/10/24 03:08:56;;;;;;;10.37;8.50;;;;;;;8.85;100.00;95563.94;5068595;27;105860;-79
2023/10/24 03:11:25;;;;;;;8.60;7.77;;;;;;;8.76;100.00;95554.88;5069774;27;101948;-79
2023/10/24 03:13:54;;;;;;;8.67;7.77;;;;;;;8.75;100.00;95566.53;5070206;27;105866;-79
2023/10/24 03:16:21;;;;;;;12.13;9.40;;;;;;;8.67;100.00;95579.47;5069373;27;105397;-79
2023/10/24 03:18:48;;;;;;;12.93;9.37;;;;;;;8.67;100.00;95588.22;5069813;27;102135;-79
2023/10/24 03:21:17;;;;;;;12.03;9.23;;;;;;;8.64;100.00;95596.69;5053174;27;105200;-81
2023/10/24 03:23:46;;;;;;;9.13;8.23;;;;;;;8.64;100.00;95577.34;5069206;27;104396;-83
2023/10/24 03:26:13;;;;;;;12.20;9.97;;;;;;;8.64;100.00;95587.94;5073278;27;101839;-78
2023/10/24 03:28:41;;;;;;;11.27;8.97;;;;;;;8.61;100.00;95583.16;5068261;27;105320;-78
2023/10/24 03:31:09;;;;;;;10.67;9.20;;;;;;;8.70;100.00;95552.44;5069789;27;101897;-78
2023/10/24 03:33:38;;;;;;;13.83;11.10;;;;;;;8.60;100.00;95560.34;5069580;27;105493;-79
2023/10/24 03:36:05;;;;;;;11.93;9.20;;;;;;;8.53;100.00;95555.28;5068216;27;105652;-79
2023/10/24 03:38:33;;;;;;;10.37;9.23;;;;;;;8.61;100.00;95559.31;5069652;27;101975;-79
2023/10/24 03:41:01;;;;;;;10.97;9.27;;;;;;;8.70;100.00;95555.09;5069155;27;105613;-78
2023/10/24 03:43:28;;;;;;;9.67;8.77;;;;;;;8.70;100.00;95547.16;5068699;27;105705;-78
2023/10/24 03:45:55;;;;;;;11.30;10.10;;;;;;;8.70;100.00;95568.34;5069042;27;102004;-78
2023/10/24 03:48:22;;;;;;;11.43;8.97;;;;;;;8.64;100.00;95572.03;5071348;27;104859;-78
2023/10/24 03:50:49;;;;;;;10.37;9.20;;;;;;;8.74;100.00;95562.28;5069356;27;101989;-77
2023/10/24 03:53:17;;;;;;;9.63;8.73;;;;;;;8.73;100.00;95567.84;5069360;27;105526;-76
2023/10/24 03:55:44;;;;;;;9.50;8.53;;;;;;;8.74;100.00;95559.63;5068552;27;105411;-79
2023/10/24 03:58:13;;;;;;;9.73;8.70;;;;;;;8.68;100.00;95551.91;5070162;27;101844;-79
2023/10/24 04:00:40;;;;;;;9.17;8.27;;;;;;;8.66;100.00;95551.34;5070023;27;105739;-79
2023/10/24 04:03:06;;;;;;;19.00;17.20;;;;;;;8.59;100.00;95550.81;5069723;27;105584;-79
2023/10/24 04:05:34;;;;;;;16.33;14.73;;;;;;;8.49;100.00;95534.84;5069465;27;101922;-79
2023/10/24 04:08:03;;;;;;;13.37;12.00;;;;;;;8.56;100.00;95530.91;5072289;27;105674;-78
2023/10/24 04:10:29;;;;;;;10.90;9.80;;;;;;;8.74;100.00;95530.47;5069436;27;101859;-78
2023/10/24 04:12:56;;;;;;;9.47;8.57;;;;;;;8.71;100.00;95533.63;5066217;27;105211;-76
2023/10/24 04:15:25;;;;;;;9.20;8.30;;;;;;;8.76;100.00;95530.19;5061702;27;105194;-78
2023/10/24 04:17:52;;;;;;;9.90;8.90;;;;;;;8.67;100.00;95535.22;5070060;27;101775;-78
2023/10/24 04:20:19;;;;;;;8.83;7.93;;;;;;;8.74;100.00;95542.94;5072516;27;105554;-78
2023/10/24 04:22:47;;;;;;;9.90;8.87;;;;;;;8.73;100.00;95541.34;5073004;27;105342;-77
2023/10/24 04:25:15;;;;;;;9.97;9.07;;;;;;;8.75;100.00;95531.25;5073645;27;101954;-77
2023/10/24 04:27:42;;;;;;;9.07;8.17;;;;;;;8.80;100.00;95518.03;5073930;27;103969;-77
2023/10/24 04:30:10;;;;;;;9.43;8.13;;;;;;;8.79;100.00;95508.50;5076384;27;104635;-78
2023/10/24 04:32:39;;;;;;;9.43;8.53;;;;;;;8.84;100.00;95513.81;5072974;27;104885;-78
2023/10/24 04:35:06;;;;;;;8.83;7.77;;;;;;;8.86;100.00;95507.19;5072833;27;105617;-78
2023/10/24 04:37:33;;;;;;;9.07;8.03;;;;;;;8.84;100.00;95503.22;5075030;27;101787;-78
2023/10/24 04:40:00;;;;;;;8.23;7.43;;;;;;;8.86;100.00;95501.88;5073439;27;105268;-78
2023/10/24 04:42:27;;;;;;;7.63;6.93;;;;;;;8.78;100.00;95502.38;5072606;27;105441;-79
2023/10/24 04:44:55;;;;;;;7.87;7.03;;;;;;;8.82;100.00;95492.84;5072980;27;101884;-78
2023/10/24 04:47:23;;;;;;;8.40;7.67;;;;;;;8.88;100.00;95485.72;5073196;27;105558;-78
2023/10/24 04:49:51;;;;;;;8.40;7.50;;;;;;;8.89;100.00;95482.00;5072462;27;105254;-77
2023/10/24 04:52:18;;;;;;;10.03;8.40;;;;;;;8.90;100.00;95486.25;5076519;27;101644;-78
2023/10/24 04:54:45;;;;;;;7.87;7.10;;;;;;;8.82;100.00;95481.44;5072659;27;105560;-78
2023/10/24 04:57:12;;;;;;;8.70;7.80;;;;;;;8.71;100.00;95469.22;5073143;27;101994;-77
2023/10/24 04:59:39;;;;;;;10.40;7.93;;;;;;;8.83;100.00;95461.84;5073087;27;105273;-77
2023/10/24 05:02:06;;;;;;;8.63;7.73;;;;;;;8.84;100.00;95458.16;5072198;27;103964;-77
2023/10/24 05:04:33;;;;;;;8.90;7.97;;;;;;;8.87;100.00;95457.59;5073054;27;101927;-78
2023/10/24 05:07:01;;;;;;;11.53;9.17;;;;;;;8.98;100.00;95454.72;5072948;27;105927;-78
2023/10/24 05:09:28;;;;;;;10.30;9.20;;;;;;;9.03;100.00;95446.78;5072330;27;105865;-78
2023/10/24 05:11:55;;;;;;;9.90;9.00;;;;;;;9.07;100.00;95434.59;5072681;27;101854;-78
2023/10/24 05:14:22;;;;;;;8.80;8.00;;;;;;;8.98;100.00;95427.41;5075561;27;104857;-78
2023/10/24 05:16:49;;;;;;;8.33;7.40;;;;;;;8.98;100.00;95416.78;5072694;27;101733;-78
2023/10/24 05:19:16;;;;;;;9.80;8.80;;;;;;;8.98;100.00;95419.44;5072723;27;105366;-78
2023/10/24 05:21:43;;;;;;;10.27;9.30;;;;;;;9.03;100.00;95422.91;5072136;27;105633;-78
2023/10/24 05:24:11;;;;;;;9.50;8.60;;;;;;;9.08;100.00;95417.63;5072525;27;101866;-78
2023/10/24 05:26:38;;;;;;;9.43;8.43;;;;;;;9.12;100.00;95417.88;5072560;27;105451;-78
2023/10/24 05:29:06;;;;;;;9.23;8.33;;;;;;;9.10;100.00;95430.63;5073296;27;102966;-78
2023/10/24 05:31:33;;;;;;;11.43;9.87;;;;;;;8.95;100.00;95452.59;5071745;27;101939;-78
2023/10/24 05:34:00;;;;;;;9.03;8.07;;;;;;;8.98;100.00;95449.41;5072269;27;105295;-78
2023/10/24 05:36:27;;;;;;;10.53;8.43;;;;;;;8.98;100.00;95443.31;5075417;27;105088;-78
2023/10/24 05:38:56;;;;;;;12.80;9.70;;;;;;;9.04;100.00;95436.94;5072312;27;105790;-78
2023/10/24 05:41:24;;;;;;;12.47;9.00;;;;;;;8.98;100.00;95430.06;5071840;27;105727;-77
2023/10/24 05:43:51;;;;;;;9.87;8.63;;;;;;;9.01;100.00;95432.19;5072192;27;101946;-77
2023/10/24 05:46:18;;;;;;;12.70;9.83;;;;;;;8.99;100.00;95421.84;5072125;27;106135;-77
2023/10/24 05:48:45;;;;;;;13.20;11.70;;;;;;;8.98;100.00;95414.94;5073080;27;102812;-77
2023/10/24 05:51:22;;;;;;;11.40;10.37;;;;;;;8.98;100.00;95412.28;5072531;27;102121;-78
2023/10/24 05:53:49;;;;;;;13.03;10.10;;;;;;;9.01;100.00;95389.75;5072588;27;103009;-78
2023/10/24 05:56:16;;;;;;;12.53;9.10;;;;;;;8.98;100.00;95379.66;5070331;27;105479;-78
2023/10/24 05:58:45;;;;;;;10.57;9.00;;;;;;;8.97;100.00;95386.03;5075269;27;102063;-78
2023/10/24 06:01:12;;;;;;;9.97;9.07;;;;;;;8.98;100.00;95387.63;5072637;27;102783;-78
2023/10/24 06:03:39;;;;;;;11.30;9.00;;;;;;;9.03;100.00;95400.88;5071691;27;101828;-78
2023/10/24 06:06:07;;;;;;;10.20;9.20;;;;;;;9.03;100.00;95411.50;5073289;27;103113;-78
2023/10/24 06:08:34;;;;;;;11.17;9.83;;;;;;;9.09;100.00;95407.78;5071170;27;104994;-78
2023/10/24 06:11:02;;;;;;;11.40;9.43;;;;;;;9.10;100.00;95396.16;5071879;27;101923;-78
2023/10/24 06:13:30;;;;;;;10.00;9.07;;;;;;;9.19;100.00;95403.28;5071688;27;105657;-77
2023/10/24 06:16:06;;;;;;;10.17;9.17;;;;;;;9.27;100.00;95401.97;5071280;27;105712;-77
2023/10/24 06:18:33;;;;;;;10.87;9.77;;;;;;;9.29;100.00;95395.34;5075250;27;101782;-77
2023/10/24 06:21:04;;;;;;;10.67;9.57;;;;;;;9.14;100.00;95407.78;5072560;27;103124;-77
2023/10/24 06:23:31;;;;;;;20.33;9.97;;;;;;;9.06;100.00;95403.81;5070669;27;102272;-77
2023/10/24 06:25:57;;;;;;;10.67;9.53;;;;;;;9.01;100.00;95410.97;5070521;27;102691;-77
2023/10/24 06:28:25;;;;;;;10.90;9.87;;;;;;;9.03;100.00;95404.34;5069281;27;105747;-77
2023/10/24 06:30:59;;;;;;;13.30;9.07;;;;;;;9.04;100.00;95394.53;5069924;27;101877;-77
2023/10/24 06:33:26;;;;;;;10.60;9.50;;;;;;;9.07;100.00;95391.34;5069951;27;104222;-77
2023/10/24 06:35:53;;;;;;;13.23;9.63;;;;;;;9.01;100.00;95385.28;5069043;27;105963;-77
2023/10/24 06:38:21;;;;;;;13.90;10.03;;;;;;;9.08;100.00;95391.09;5068646;27;102136;-78
2023/10/24 06:40:48;;;;;;;13.17;9.97;;;;;;;9.09;100.00;95391.88;5070977;27;104823;-77
2023/10/24 06:43:15;;;;;;;10.37;9.37;;;;;;;9.09;100.00;95389.22;5067326;27;102077;-77
2023/10/24 06:45:42;;;;;;;11.10;10.00;;;;;;;9.15;100.00;95385.50;5067885;27;105258;-77
2023/10/24 06:48:11;;;;;;;11.00;9.90;;;;;;;9.08;100.00;95383.16;5066914;27;105813;-77
2023/10/24 06:50:39;;;;;;;10.83;8.97;;;;;;;9.15;100.00;95381.00;5068399;27;102097;-77
2023/10/24 06:53:06;;;;;;;10.43;8.90;;;;;;;9.20;100.00;95380.22;5070387;27;105615;-77
2023/10/24 06:55:33;;;;;;;10.37;9.37;;;;;;;9.15;100.00;95370.41;5069582;27;105401;-77
2023/10/24 06:58:00;;;;;;;11.03;9.93;;;;;;;9.03;100.00;95366.41;5070149;27;101898;-77
2023/10/24 07:00:28;;;;;;;10.93;9.90;;;;;;;9.04;100.00;95357.41;5070165;27;106154;-77
2023/10/24 07:02:55;;;;;;;11.27;10.17;;;;;;;9.10;100.00;95345.75;5072822;27;105840;-77
2023/10/24 07:05:24;;;;;;;10.97;9.87;;;;;;;9.23;100.00;95345.22;5070506;27;102811;-78
2023/10/24 07:07:51;;;;;;;10.90;9.90;;;;;;;9.37;100.00;95359.53;5069506;27;105507;-78
2023/10/24 07:10:19;;;;;;;12.00;10.40;;;;;;;9.35;100.00;95364.28;5070101;27;102038;-78
2023/10/24 07:12:46;;;;;;;11.67;10.37;;;;;;;9.45;100.00;95338.56;5068885;27;105153;-78
2023/10/24 07:15:13;;;;;;;12.27;10.03;;;;;;;9.41;100.00;95318.91;5068777;27;103123;-78
2023/10/24 07:17:40;;;;;;;10.80;9.70;;;;;;;9.42;100.00;95317.03;5068864;27;102176;-78
2023/10/24 07:20:08;;;;;;;11.50;10.30;;;;;;;9.52;100.00;95303.75;5069961;27;105253;-78
2023/10/24 07:22:36;;;;;;;11.80;10.43;;;;;;;9.68;100.00;95286.72;5068433;27;105354;-78
2023/10/24 07:25:03;;;;;;;11.93;10.20;;;;;;;9.65;100.00;95297.91;5072424;27;101950;-78
2023/10/24 07:27:30;;;;;;;12.57;10.00;;;;;;;9.60;100.00;95311.19;5068187;27;105590;-78
2023/10/24 07:29:57;;;;;;;15.40;13.17;;;;;;;9.59;100.00;95334.25;5068812;27;101865;-78
2023/10/24 07:32:24;;;;;;;86.40;50.63;;;;;;;9.62;100.00;95330.28;5068773;27;105473;-78
2023/10/24 07:34:55;;;;;;;12.97;11.57;;;;;;;9.44;100.00;95326.31;5068266;27;105605;-78
2023/10/24 07:37:23;;;;;;;14.57;12.33;;;;;;;9.42;100.00;95322.34;5070157;27;102257;-78
2023/10/24 07:39:52;;;;;;;12.83;11.43;;;;;;;9.48;100.00;95316.00;5068642;27;105585;-78
2023/10/24 07:42:19;;;;;;;14.23;12.80;;;;;;;9.54;100.00;95293.69;5068015;27;105434;-78
2023/10/24 07:44:46;;;;;;;14.40;12.13;;;;;;;9.66;100.00;95284.34;5068447;27;101993;-78
2023/10/24 07:47:13;;;;;;;12.40;10.97;;;;;;;9.72;100.00;95290.44;5071376;27;105326;-78
2023/10/24 07:49:40;;;;;;;13.20;11.27;;;;;;;9.83;100.00;95292.78;5068457;27;101932;-78
2023/10/24 07:52:07;;;;;;;13.33;12.07;;;;;;;9.87;100.00;95290.38;5069903;27;102653;-78
2023/10/24 07:54:33;;;;;;;12.53;11.27;;;;;;;9.96;100.00;95278.09;5067236;27;105185;-78
2023/10/24 07:57:02;;;;;;;11.80;10.53;;;;;;;9.99;100.00;95280.22;5068303;27;102091;-78
2023/10/24 07:59:29;;;;;;;12.43;11.17;;;;;;;10.03;100.00;95287.38;5068405;27;104872;-78
2023/10/24 08:01:56;;;;;;;13.30;11.93;;;;;;;10.01;100.00;95280.75;5067756;27;105677;-78
2023/10/24 08:04:23;;;;;;;14.10;12.60;;;;;;;9.99;100.00;95282.88;5069637;27;101828;-78
2023/10/24 08:06:50;;;;;;;22.23;17.77;;;;;;;9.94;100.00;95288.22;5068216;27;105232;-78
2023/10/24 08:09:17;;;;;;;36.47;25.67;;;;;;;9.97;100.00;95277.06;5070671;27;101898;-78
2023/10/24 08:11:44;;;;;;;25.93;17.87;;;;;;;9.90;100.00;95274.69;5068072;27;105017;-78
2023/10/24 08:14:13;;;;;;;17.60;14.07;;;;;;;9.92;100.00;95277.88;5067666;27;105949;-78
2023/10/24 08:16:40;;;;;;;13.47;12.07;;;;;;;9.95;100.00;95284.50;5068006;27;101894;-78
2023/10/24 08:19:07;;;;;;;11.67;10.27;;;;;;;9.96;100.00;95286.88;5068111;27;105056;-78
2023/10/24 08:21:33;;;;;;;11.67;10.57;;;;;;;9.97;100.00;95293.78;5067469;27;104363;-78
2023/10/24 08:24:00;;;;;;;12.13;10.63;;;;;;;9.83;100.00;95290.13;5067817;27;101998;-78
2023/10/24 08:26:27;;;;;;;10.60;9.50;;;;;;;9.84;100.00;95288.25;5068053;27;105121;-78
2023/10/24 08:28:54;;;;;;;10.80;9.47;;;;;;;9.90;100.00;95287.16;5071884;27;105783;-78
2023/10/24 08:31:22;;;;;;;10.37;9.07;;;;;;;10.00;100.00;95287.13;5069014;27;105567;-78
2023/10/24 08:33:49;;;;;;;9.47;8.57;;;;;;;10.12;100.00;95282.31;5068243;27;105876;-77
2023/10/24 08:36:16;;;;;;;10.83;8.90;;;;;;;10.14;100.00;95274.88;5068957;27;102331;-77
2023/10/24 08:38:43;;;;;;;10.63;8.50;;;;;;;10.06;100.00;95275.44;5068758;27;104879;-78
2023/10/24 08:41:10;;;;;;;9.87;8.87;;;;;;;10.07;100.00;95277.03;5068530;27;104545;-80
2023/10/24 08:43:37;;;;;;;9.47;8.57;;;;;;;10.16;100.00;95286.81;5068631;27;102045;-79
2023/10/24 08:46:05;;;;;;;9.60;8.70;;;;;;;10.25;100.00;95277.19;5068432;27;105383;-82
2023/10/24 08:48:35;;;;;;;9.70;8.67;;;;;;;10.26;100.00;95270.78;5069456;27;103528;-79
2023/10/24 08:51:02;;;;;;;10.47;9.33;;;;;;;10.36;100.00;95275.28;5072152;27;102235;-79
2023/10/24 08:53:29;;;;;;;12.00;9.03;;;;;;;10.40;100.00;95276.28;5067753;27;105726;-78
2023/10/24 08:55:57;;;;;;;10.57;9.30;;;;;;;10.58;100.00;95273.00;5068383;27;101999;-80
2023/10/24 08:58:25;;;;;;;11.47;9.73;;;;;;;10.54;100.00;95263.97;5068605;27;105746;-80
2023/10/24 09:00:52;;;;;;;11.17;10.07;;;;;;;10.55;100.00;95268.22;5068039;27;105673;-84
2023/10/24 09:03:19;;;;;;;12.87;11.47;;;;;;;10.73;100.00;95276.31;5067411;27;102030;-81
2023/10/24 09:05:48;;;;;;;11.10;9.97;;;;;;;10.74;100.00;95271.81;5068908;27;102909;-81
2023/10/24 09:08:16;;;;;;;12.07;10.83;;;;;;;10.70;100.00;95276.91;5070501;27;105280;-81
2023/10/24 09:10:43;;;;;;;11.03;9.23;;;;;;;10.66;100.00;95270.53;5072366;27;101763;-81
2023/10/24 09:13:10;;;;;;;10.80;9.77;;;;;;;10.54;100.00;95266.63;5074793;27;105586;-81
2023/10/24 09:15:39;;;;;;;11.20;10.10;;;;;;;10.43;100.00;95255.31;5071907;27;101944;-81
2023/10/24 09:18:06;;;;;;;11.30;9.60;;;;;;;10.49;100.00;95258.69;5070868;27;105176;-81
2023/10/24 09:20:33;;;;;;;10.87;9.77;;;;;;;10.61;100.00;95246.66;5072826;27;103059;-81
2023/10/24 09:23:06;;;;;;;12.57;11.27;;;;;;;10.70;100.00;95244.19;5071612;27;101944;-81
2023/10/24 09:25:33;;;;;;;12.90;10.70;;;;;;;10.73;100.00;95243.63;5072261;27;102576;-80
2023/10/24 09:28:16;;;;;;;12.00;10.80;;;;;;;10.64;100.00;95245.31;5070051;27;105626;-80
2023/10/24 09:30:44;;;;;;;11.80;10.70;;;;;;;10.58;100.00;95249.84;5070612;27;102142;-80
2023/10/24 09:33:11;;;;;;;12.37;11.10;;;;;;;10.59;100.00;95238.16;5070428;27;103717;-80
2023/10/24 09:35:38;;;;;;;12.97;11.70;;;;;;;10.61;100.00;95236.03;5073376;27;105925;-80
2023/10/24 09:38:08;;;;;;;12.17;11.07;;;;;;;10.56;100.00;95246.69;5070563;27;104196;-80
2023/10/24 09:40:36;;;;;;;49.60;31.87;;;;;;;10.57;100.00;95256.25;5069978;27;105912;-80
2023/10/24 09:43:11;;;;;;;39.23;28.57;;;;;;;10.48;100.00;95246.50;5070242;27;102017;-80
2023/10/24 09:45:41;;;;;;;17.43;15.50;;;;;;;10.60;100.00;95241.59;5069882;27;104076;-80
2023/10/24 09:48:09;;;;;;;21.50;16.83;;;;;;;10.72;100.00;95236.72;5069831;27;105796;-80
2023/10/24 09:50:39;;;;;;;11.73;10.50;;;;;;;10.52;100.00;95220.94;5070217;27;102138;-80
2023/10/24 09:53:08;;;;;;;12.03;10.73;;;;;;;10.59;100.00;95222.22;5071471;27;102937;-80
2023/10/24 09:55:36;;;;;;;12.53;10.47;;;;;;;10.69;100.00;95221.34;5069736;27;105136;-80
2023/10/24 09:58:04;;;;;;;11.27;9.93;;;;;;;10.69;100.00;95213.38;5073949;27;101905;-80
2023/10/24 10:00:31;;;;;;;13.07;10.10;;;;;;;10.67;100.00;95199.53;5070539;27;105869;-80
2023/10/24 10:02:59;;;;;;;12.53;10.47;;;;;;;10.86;100.00;95200.44;5070085;27;101887;-80
2023/10/24 10:05:30;;;;;;;12.73;10.97;;;;;;;10.95;100.00;95198.78;5070139;27;104801;-80
2023/10/24 10:07:58;;;;;;;11.00;10.00;;;;;;;11.04;100.00;95181.09;5069416;27;105421;-80
2023/10/24 10:10:27;;;;;;;12.70;10.57;;;;;;;11.21;100.00;95170.81;5071279;27;101805;-80
2023/10/24 10:12:59;;;;;;;11.40;10.30;;;;;;;11.28;100.00;95168.63;5071248;27;102507;-80
2023/10/24 10:15:59;;;;;;;17.47;10.60;;;;;;;11.37;100.00;95177.53;5069671;27;104309;-80
2023/10/24 10:18:48;;;;;;;14.47;11.93;;;;;;;11.55;100.00;95160.84;5072903;27;101909;-80
2023/10/24 10:21:24;;;;;;;13.03;11.50;;;;;;;11.72;100.00;95155.84;5070836;27;102835;-80
2023/10/24 10:24:13;;;;;;;12.93;11.40;;;;;;;11.58;100.00;95138.94;5070001;27;101948;-80
2023/10/24 10:27:00;;;;;;;12.33;10.97;;;;;;;11.58;100.00;95122.97;5070245;27;104993;-80
2023/10/24 10:29:41;;;;;;;11.43;10.33;;;;;;;11.72;100.00;95124.66;5069010;27;105595;-80
2023/10/24 10:32:22;;;;;;;11.13;10.13;;;;;;;11.72;100.00;95134.53;5069480;27;102250;-80
2023/10/24 10:34:51;;;;;;;31.73;28.20;;;;;;;11.65;100.00;95140.22;5069613;27;105052;-80
2023/10/24 10:37:18;;;;;;;24.23;21.73;;;;;;;11.65;100.00;95134.09;5069072;27;104343;-80
2023/10/24 10:40:18;;;;;;;15.53;13.43;;;;;;;11.68;100.00;95139.66;5069723;27;101936;-80
2023/10/24 10:42:47;;;;;;;11.33;9.73;;;;;;;11.68;100.00;95133.53;5072634;27;104912;-80
2023/10/24 10:45:27;;;;;;;13.10;10.70;;;;;;;11.67;100.00;95137.28;5070180;27;101971;-80
2023/10/24 10:47:58;;;;;;;14.70;9.90;;;;;;;11.44;100.00;95146.84;5069420;27;105045;-80
2023/10/24 10:50:27;;;;;;;12.73;10.90;;;;;;;11.40;100.00;95153.03;5069725;27;104182;-80
2023/10/24 10:53:01;;;;;;;13.00;10.47;;;;;;;11.19;100.00;95157.00;5069384;27;101947;-80
2023/10/24 10:55:38;;;;;;;12.57;10.60;;;;;;;11.09;100.00;95157.09;5069307;27;105423;-80
2023/10/24 10:58:20;;;;;;;12.97;11.67;;;;;;;11.13;100.00;95144.84;5068784;27;105502;-80
2023/10/24 11:00:59;;;;;;;15.17;11.80;;;;;;;11.16;100.00;95153.03;5070860;27;101721;-80
2023/10/24 11:03:44;;;;;;;13.10;10.97;;;;;;;11.07;100.00;95156.63;5068878;27;105449;-80
2023/10/24 11:06:14;;;;;;;12.70;10.47;;;;;;;11.17;100.00;95149.28;5072082;27;104324;-80
2023/10/24 11:08:42;;;;;;;15.67;12.07;;;;;;;11.25;100.00;95143.38;5070466;27;102915;-80
2023/10/24 11:11:11;;;;;;;14.87;11.33;;;;;;;11.31;100.00;95131.56;5068473;27;104285;-80
2023/10/24 11:13:42;;;;;;;13.27;11.87;;;;;;;11.38;100.00;95113.38;5069079;27;102147;-80
2023/10/24 11:16:10;;;;;;;20.27;15.00;;;;;;;11.38;100.00;95118.72;5070639;27;102825;-80
2023/10/24 11:18:39;;;;;;;23.30;16.00;;;;;;;11.41;100.00;95117.34;5068378;27;105830;-80
2023/10/24 11:21:09;;;;;;;19.97;15.10;;;;;;;11.52;100.00;95102.81;5068893;27;102172;-80